Main page
METAR-TAF:

METAR-TAF

Airports :

Madison Municipal Airport

Madison, South Dakota, United States

latitude: 44-00-59N, longitude: 097-05-08W, elevation: 1719 ft

Current weather observation

The report was made 22 minutes ago, at 13:35 UTC
Wind 10 mph from the South/Southeast
Temperature 23°F
Humidity 100%
Pressure 29.94 in. Hg
Visibility: 10 miles
Clear sky

METAR: KMDS 221335Z AUTO 16009KT 10SM CLR M05/M05 A2994 RMK AO2

Time: 06:57 (13:57 UTC)


TAF: missing

Weather observations and forecasts of more than 4000 airports (METAR and TAF reports).

The available stations are represented by yellow and red dots on the map.

Hover mouse over dot to see the name of the station.

Then click to see weather observations and forecasts.

To change the map : click on the green buttons with a black cross to zoom in, on the green button with a dash to zoom out, or on the green arrows for adjacent maps.


METAR-TAF: